Time;durP1;ratioP1;P1;durP2;ratioP2;P2;SDS_P1;SDS_P2;PMS_P1;PMS_P2;Temp;Humidity;BMP_temperature;BMP_pressure;BME280_temperature;BME280_humidity;BME280_pressure;Samples;Min_cycle;Max_cycle;Signal;HPM_P1;HPM_P2
2022/03/27 00:00:41;;;;;;;5.53;4.20;;;7.70;99.90;;;;;;5137527;27;20073;-73
2022/03/27 00:03:07;;;;;;;5.85;3.80;;;7.80;99.90;;;;;;5156274;27;20051;-73
2022/03/27 00:05:33;;;;;;;4.60;3.67;;;7.70;99.90;;;;;;5137362;27;20398;-74
2022/03/27 00:07:58;;;;;;;6.47;3.60;;;7.70;99.90;;;;;;5156319;27;20051;-73
2022/03/27 00:10:24;;;;;;;4.25;3.60;;;7.70;99.90;;;;;;5155680;27;20471;-73
2022/03/27 00:12:50;;;;;;;4.85;3.65;;;7.70;99.90;;;;;;5155977;27;20045;-73
2022/03/27 00:15:16;;;;;;;5.28;3.72;;;7.60;99.90;;;;;;5120028;27;20335;-77
2022/03/27 00:17:41;;;;;;;4.65;3.53;;;7.60;99.90;;;;;;5155939;27;20087;-73
2022/03/27 00:20:08;;;;;;;6.72;3.60;;;7.60;99.90;;;;;;5155897;27;20050;-73
2022/03/27 00:22:34;;;;;;;6.32;3.90;;;7.60;99.90;;;;;;5155304;27;20047;-73
2022/03/27 00:25:00;;;;;;;6.82;3.53;;;7.70;99.90;;;;;;5155755;27;20047;-73
2022/03/27 00:27:26;;;;;;;5.10;4.40;;;7.60;99.90;;;;;;5155344;27;20495;-73
2022/03/27 00:29:52;;;;;;;6.40;4.15;;;7.70;99.90;;;;;;5155780;27;20053;-73
2022/03/27 00:32:17;;;;;;;7.45;4.60;;;7.60;99.90;;;;;;5155676;27;20058;-73
2022/03/27 00:34:43;;;;;;;9.07;4.30;;;7.60;99.90;;;;;;5131701;27;20475;-73
2022/03/27 00:37:09;;;;;;;7.70;4.30;;;7.60;99.90;;;;;;5147386;27;20042;-73
2022/03/27 00:39:34;;;;;;;9.88;4.55;;;7.60;99.90;;;;;;5154807;27;20530;-73
2022/03/27 00:42:00;;;;;;;6.03;4.40;;;7.60;99.90;;;;;;5119613;27;20038;-73
2022/03/27 00:44:27;;;;;;;5.82;4.18;;;7.60;99.90;;;;;;5154603;27;20136;-73
2022/03/27 00:46:53;;;;;;;7.25;4.28;;;7.60;99.90;;;;;;5154898;27;20047;-74
2022/03/27 00:49:19;;;;;;;8.23;4.22;;;7.60;99.90;;;;;;5136671;27;20050;-73
2022/03/27 00:51:44;;;;;;;9.98;4.50;;;7.60;99.90;;;;;;5130280;27;20122;-74
2022/03/27 00:54:10;;;;;;;8.38;4.43;;;7.60;99.90;;;;;;5155048;27;20119;-73
2022/03/27 00:56:36;;;;;;;5.63;4.20;;;7.60;99.90;;;;;;5135682;27;20479;-73
2022/03/27 00:59:02;;;;;;;9.05;4.82;;;7.50;99.90;;;;;;5154690;27;20062;-76
2022/03/27 01:01:38;;;;;;;8.90;4.60;;;7.50;99.90;;;;;;5154452;27;20051;-73
2022/03/27 01:04:04;;;;;;;8.80;4.43;;;7.50;99.90;;;;;;5154585;27;20045;-73
2022/03/27 01:06:34;;;;;;;8.68;4.43;;;7.50;99.90;;;;;;5135934;27;20478;-73
2022/03/27 01:11:45;;;;;;;11.30;5.22;;;7.40;99.90;;;;;;5154650;27;20061;-73
2022/03/27 01:14:11;;;;;;;11.43;6.10;;;7.40;99.90;;;;;;5136496;27;20448;-74
2022/03/27 01:16:55;;;;;;;10.57;5.78;;;7.40;99.90;;;;;;5154339;27;20068;-74
2022/03/27 01:19:21;;;;;;;9.80;5.32;;;7.40;99.90;;;;;;5154978;27;20047;-73
2022/03/27 01:21:47;;;;;;;13.48;6.25;;;7.40;99.90;;;;;;5153951;27;20516;-74
2022/03/27 01:24:15;;;;;;;10.98;5.97;;;7.40;99.90;;;;;;5136414;27;20111;-73
2022/03/27 01:26:41;;;;;;;14.90;6.50;;;7.40;99.90;;;;;;5154354;27;20130;-73
2022/03/27 01:29:07;;;;;;;13.43;6.30;;;7.40;99.90;;;;;;5154594;27;20089;-73
2022/03/27 01:31:33;;;;;;;13.15;6.57;;;7.40;99.90;;;;;;5135813;27;20086;-73
2022/03/27 01:33:59;;;;;;;13.48;6.38;;;7.40;99.90;;;;;;5154650;27;20482;-73
2022/03/27 01:36:28;;;;;;;12.00;6.00;;;7.40;99.90;;;;;;5136428;27;20034;-73
2022/03/27 01:38:55;;;;;;;12.00;6.13;;;7.40;99.90;;;;;;5154644;27;20042;-73
2022/03/27 01:41:21;;;;;;;12.85;6.57;;;7.40;99.90;;;;;;5154590;27;20043;-73
2022/03/27 01:43:47;;;;;;;11.45;6.32;;;7.40;99.90;;;;;;5118573;27;20058;-73
2022/03/27 01:46:13;;;;;;;15.88;7.88;;;7.40;99.90;;;;;;5135509;27;20046;-73
2022/03/27 01:48:38;;;;;;;12.88;6.90;;;7.40;99.90;;;;;;5153593;27;20049;-73
2022/03/27 01:51:04;;;;;;;11.85;6.57;;;7.40;99.90;;;;;;5154234;27;20090;-73
2022/03/27 01:53:30;;;;;;;15.77;6.75;;;7.40;99.90;;;;;;5135687;27;20239;-73
2022/03/27 01:55:56;;;;;;;13.23;7.20;;;7.40;99.90;;;;;;5154060;27;20066;-74
2022/03/27 01:58:22;;;;;;;17.88;7.00;;;7.50;99.90;;;;;;5154293;27;20103;-73
2022/03/27 02:00:48;;;;;;;13.55;7.32;;;7.50;99.90;;;;;;5135380;27;20395;-73
2022/03/27 02:03:13;;;;;;;13.32;6.95;;;7.50;99.90;;;;;;5135915;27;20043;-74
2022/03/27 02:05:39;;;;;;;17.05;7.45;;;7.50;99.90;;;;;;5153367;27;20049;-73
2022/03/27 02:08:05;;;;;;;15.98;6.88;;;7.50;99.90;;;;;;5135822;27;20078;-73
2022/03/27 02:10:30;;;;;;;20.20;7.30;;;7.50;99.90;;;;;;5154207;27;20089;-73
2022/03/27 02:12:56;;;;;;;12.88;7.57;;;7.50;99.90;;;;;;5135235;27;20098;-74
2022/03/27 02:15:23;;;;;;;13.60;7.05;;;7.50;99.90;;;;;;5154020;27;20050;-73
2022/03/27 02:17:49;;;;;;;17.40;7.40;;;7.50;99.90;;;;;;5153595;27;20057;-73
2022/03/27 02:20:15;;;;;;;16.70;6.80;;;7.50;99.90;;;;;;5118571;27;20550;-74
2022/03/27 02:22:40;;;;;;;15.20;6.90;;;7.50;99.90;;;;;;5135329;27;20467;-73
2022/03/27 02:25:06;;;;;;;19.70;7.45;;;7.50;99.90;;;;;;5153896;27;20049;-73
2022/03/27 02:27:32;;;;;;;16.23;7.28;;;7.50;99.90;;;;;;5118352;27;20047;-73
2022/03/27 02:29:58;;;;;;;14.80;7.85;;;7.50;99.90;;;;;;5153770;27;20046;-73
2022/03/27 02:32:23;;;;;;;13.98;6.68;;;7.50;99.90;;;;;;5153932;27;20129;-73
2022/03/27 02:34:49;;;;;;;13.02;6.70;;;7.40;99.90;;;;;;5153324;27;20167;-73
2022/03/27 02:37:15;;;;;;;15.88;6.55;;;7.40;99.90;;;;;;5135658;27;20045;-73
2022/03/27 02:39:41;;;;;;;14.00;6.70;;;7.50;99.90;;;;;;5153664;27;20535;-74
2022/03/27 02:42:07;;;;;;;14.38;6.72;;;7.50;99.90;;;;;;5118324;27;20073;-73
2022/03/27 02:44:32;;;;;;;14.85;5.97;;;7.40;99.90;;;;;;5135321;27;20455;-73
2022/03/27 02:46:59;;;;;;;13.52;6.80;;;7.40;99.90;;;;;;5153375;27;20078;-74
2022/03/27 02:49:24;;;;;;;12.70;6.25;;;7.30;99.90;;;;;;5153504;27;20490;-73
2022/03/27 02:51:50;;;;;;;13.93;6.78;;;7.40;99.90;;;;;;5134672;27;20103;-73
2022/03/27 02:54:16;;;;;;;11.90;6.78;;;7.40;99.90;;;;;;5153573;27;20087;-73
2022/03/27 02:56:41;;;;;;;12.95;5.97;;;7.40;99.90;;;;;;5153495;27;20063;-74
2022/03/27 02:59:07;;;;;;;13.80;6.50;;;7.40;99.90;;;;;;5157480;27;20043;-73
2022/03/27 03:01:33;;;;;;;14.48;6.47;;;7.30;99.90;;;;;;5122016;27;20475;-73
2022/03/27 03:03:59;;;;;;;16.08;7.35;;;7.30;99.90;;;;;;5152523;27;20058;-73
2022/03/27 03:06:25;;;;;;;15.07;6.53;;;7.30;99.90;;;;;;5121803;27;20042;-73
2022/03/27 03:08:51;;;;;;;13.18;7.07;;;7.30;99.90;;;;;;5156112;27;20440;-74
2022/03/27 03:11:17;;;;;;;13.95;7.43;;;7.30;99.90;;;;;;5149681;27;20099;-74
2022/03/27 03:13:44;;;;;;;15.35;6.85;;;7.30;99.90;;;;;;5138421;27;20047;-73
2022/03/27 03:16:09;;;;;;;18.15;7.10;;;7.30;99.90;;;;;;5156842;27;20058;-73
2022/03/27 03:18:35;;;;;;;15.40;7.13;;;7.30;99.90;;;;;;5118096;27;20395;-73
2022/03/27 03:21:02;;;;;;;16.65;7.38;;;7.30;99.90;;;;;;5128462;27;20517;-75
2022/03/27 03:23:28;;;;;;;18.35;7.25;;;7.20;99.90;;;;;;5121352;27;20042;-73
2022/03/27 03:25:55;;;;;;;21.63;7.45;;;7.20;99.90;;;;;;5156295;27;20039;-73
2022/03/27 03:28:20;;;;;;;17.77;7.90;;;7.20;99.90;;;;;;5117868;27;20047;-73
2022/03/27 03:30:46;;;;;;;16.98;7.40;;;7.20;99.90;;;;;;5122785;27;20054;-73
2022/03/27 03:33:12;;;;;;;15.00;7.65;;;7.20;99.90;;;;;;5138004;27;20042;-73
2022/03/27 03:35:39;;;;;;;15.13;7.90;;;7.30;99.90;;;;;;5156527;27;20496;-73
2022/03/27 03:38:05;;;;;;;14.15;6.95;;;7.20;99.90;;;;;;5137795;27;20497;-74
2022/03/27 03:40:31;;;;;;;14.23;7.22;;;7.20;99.90;;;;;;5156779;27;20038;-73
2022/03/27 03:42:57;;;;;;;16.75;7.38;;;7.20;99.90;;;;;;5156386;27;20046;-73
2022/03/27 03:45:22;;;;;;;18.77;7.57;;;7.20;99.90;;;;;;5138440;27;20094;-73
2022/03/27 03:47:48;;;;;;;20.52;7.30;;;7.20;99.90;;;;;;5156162;27;20527;-74
2022/03/27 03:50:14;;;;;;;25.90;8.05;;;7.20;99.90;;;;;;5138156;27;20034;-73
2022/03/27 03:52:40;;;;;;;16.83;7.28;;;7.20;99.90;;;;;;5156464;27;20072;-73
2022/03/27 03:55:06;;;;;;;23.05;8.18;;;7.20;99.90;;;;;;5155892;27;20039;-73
2022/03/27 03:57:31;;;;;;;17.55;7.68;;;7.20;99.90;;;;;;5156398;27;20372;-73
2022/03/27 03:59:58;;;;;;;22.90;7.47;;;7.20;99.90;;;;;;5155932;27;20099;-73
2022/03/27 04:02:23;;;;;;;22.85;7.72;;;7.20;99.90;;;;;;5156407;27;20102;-73
2022/03/27 04:04:49;;;;;;;17.75;7.43;;;7.20;99.90;;;;;;5138138;27;20461;-73
2022/03/27 04:07:15;;;;;;;21.25;7.60;;;7.20;99.90;;;;;;5155831;27;20428;-73
2022/03/27 04:09:40;;;;;;;18.70;7.55;;;7.20;99.90;;;;;;5137581;27;20042;-73
2022/03/27 04:12:07;;;;;;;17.08;6.63;;;7.20;99.90;;;;;;5120340;27;20389;-73
2022/03/27 04:14:36;;;;;;;20.25;7.15;;;7.20;99.90;;;;;;5120571;27;20042;-73
2022/03/27 04:17:02;;;;;;;17.15;6.90;;;7.20;99.90;;;;;;5137258;27;20133;-73
2022/03/27 04:19:29;;;;;;;15.80;6.30;;;7.10;99.90;;;;;;5155990;27;20053;-73
2022/03/27 04:21:55;;;;;;;20.80;6.85;;;7.10;99.90;;;;;;5155567;27;20129;-73
2022/03/27 04:24:21;;;;;;;19.08;6.22;;;7.10;99.90;;;;;;5155696;27;20088;-74
2022/03/27 04:26:46;;;;;;;19.92;5.68;;;7.00;99.90;;;;;;5155515;27;20092;-73
2022/03/27 04:29:12;;;;;;;18.58;5.80;;;7.10;99.90;;;;;;5155303;27;20042;-73
2022/03/27 04:31:39;;;;;;;23.38;5.78;;;7.00;99.90;;;;;;5137265;27;20091;-73
2022/03/27 04:34:05;;;;;;;21.80;5.75;;;7.00;99.90;;;;;;5136752;27;20038;-74
2022/03/27 04:36:30;;;;;;;23.00;5.70;;;7.00;99.90;;;;;;5155566;27;20038;-73
2022/03/27 04:38:56;;;;;;;16.80;5.80;;;7.00;99.90;;;;;;5155192;27;20047;-74
2022/03/27 04:41:22;;;;;;;19.23;5.18;;;6.80;99.90;;;;;;5136889;27;20043;-73
2022/03/27 04:43:48;;;;;;;20.35;5.72;;;6.80;99.90;;;;;;5155531;27;20043;-73
2022/03/27 04:46:17;;;;;;;19.83;5.70;;;6.80;99.90;;;;;;5155068;27;20057;-73
2022/03/27 04:48:42;;;;;;;13.57;4.88;;;6.80;99.90;;;;;;5155316;27;20042;-73
2022/03/27 04:51:08;;;;;;;18.92;5.47;;;6.70;99.90;;;;;;5136557;27;20046;-73
2022/03/27 04:53:34;;;;;;;16.60;5.25;;;6.70;99.90;;;;;;5136781;27;20095;-73
2022/03/27 04:55:59;;;;;;;13.48;5.45;;;6.60;99.90;;;;;;5136069;27;20047;-73
2022/03/27 04:58:25;;;;;;;11.30;5.07;;;6.60;99.90;;;;;;5136599;27;20058;-73
2022/03/27 05:00:50;;;;;;;14.43;5.18;;;6.50;99.90;;;;;;5136848;27;20046;-73
2022/03/27 05:03:16;;;;;;;14.35;5.53;;;6.50;99.90;;;;;;5154725;27;20055;-73
2022/03/27 05:05:42;;;;;;;15.13;5.53;;;6.50;99.90;;;;;;5136731;27;20042;-73
2022/03/27 05:08:08;;;;;;;14.50;5.82;;;6.40;99.90;;;;;;5154503;27;20058;-73
2022/03/27 05:10:34;;;;;;;21.30;6.13;;;6.50;99.90;;;;;;5155075;27;20041;-73
2022/03/27 05:13:00;;;;;;;23.08;6.88;;;6.50;99.90;;;;;;5136453;27;20042;-73
2022/03/27 05:15:26;;;;;;;14.57;5.90;;;6.50;99.90;;;;;;5136246;27;20127;-72
2022/03/27 05:17:56;;;;;;;27.15;6.43;;;6.50;99.90;;;;;;5136740;27;20431;-73
2022/03/27 05:20:22;;;;;;;39.92;6.60;;;6.40;99.90;;;;;;5153809;27;20216;-73
2022/03/27 05:22:47;;;;;;;23.77;6.32;;;6.50;99.90;;;;;;5119453;27;20042;-73
2022/03/27 05:25:13;;;;;;;25.45;6.85;;;6.40;99.90;;;;;;5154299;27;20034;-73
2022/03/27 05:27:58;;;;;;;36.38;6.72;;;6.40;99.90;;;;;;5136219;27;20077;-73
2022/03/27 05:30:25;;;;;;;20.38;6.95;;;6.40;99.90;;;;;;5119074;27;20043;-73
2022/03/27 05:32:53;;;;;;;29.05;6.18;;;6.40;99.90;;;;;;5134278;27;20047;-77
2022/03/27 05:35:19;;;;;;;74.20;6.57;;;6.40;99.90;;;;;;5146823;27;20035;-73
2022/03/27 05:37:45;;;;;;;63.42;5.95;;;6.30;99.90;;;;;;5115662;27;20043;-74
2022/03/27 05:40:13;;;;;;;60.72;6.75;;;6.30;99.90;;;;;;5114640;27;20074;-74
2022/03/27 05:42:38;;;;;;;66.28;5.63;;;6.30;99.90;;;;;;5119941;27;20047;-73
2022/03/27 05:45:05;;;;;;;63.63;6.13;;;6.30;99.90;;;;;;5145174;27;20063;-75
2022/03/27 05:47:31;;;;;;;39.95;5.57;;;6.30;99.90;;;;;;5135583;27;20095;-72
2022/03/27 05:49:56;;;;;;;40.05;5.25;;;6.30;99.90;;;;;;5154031;27;20548;-72
2022/03/27 05:52:23;;;;;;;37.45;5.30;;;6.30;99.90;;;;;;5147715;27;20121;-72
2022/03/27 05:54:49;;;;;;;68.13;5.63;;;6.20;99.90;;;;;;5118672;27;20080;-72
2022/03/27 05:57:14;;;;;;;42.35;4.97;;;6.20;99.90;;;;;;5135071;27;20125;-75
2022/03/27 05:59:40;;;;;;;47.47;4.93;;;6.10;99.90;;;;;;5154028;27;20117;-72
2022/03/27 06:02:06;;;;;;;36.72;4.10;;;6.20;99.90;;;;;;5136767;27;20171;-73
2022/03/27 06:04:32;;;;;;;36.70;3.58;;;6.10;99.90;;;;;;5153406;27;20050;-72
2022/03/27 06:06:57;;;;;;;50.70;4.30;;;6.10;99.90;;;;;;5135940;27;20043;-73
2022/03/27 06:09:23;;;;;;;25.42;3.78;;;6.10;99.90;;;;;;5153811;27;20049;-72
2022/03/27 06:11:49;;;;;;;37.47;3.70;;;6.10;99.90;;;;;;5154324;27;20087;-72
2022/03/27 06:14:14;;;;;;;29.00;3.60;;;6.00;99.90;;;;;;5153648;27;20039;-72
2022/03/27 06:16:40;;;;;;;24.88;3.92;;;6.10;99.90;;;;;;5154322;27;20460;-72
2022/03/27 06:19:06;;;;;;;16.55;3.35;;;6.00;99.90;;;;;;5154244;27;20050;-72
2022/03/27 06:21:31;;;;;;;22.85;3.67;;;6.00;99.90;;;;;;5135315;27;20039;-72
2022/03/27 06:23:58;;;;;;;26.23;3.60;;;6.00;99.90;;;;;;5154134;27;20035;-72
2022/03/27 06:26:23;;;;;;;24.92;3.58;;;6.00;99.90;;;;;;5153774;27;20100;-72
2022/03/27 06:28:49;;;;;;;12.00;3.40;;;6.00;99.90;;;;;;5153845;27;20493;-71
2022/03/27 06:31:14;;;;;;;17.13;3.30;;;6.00;99.90;;;;;;5119357;27;20054;-72
2022/03/27 06:33:40;;;;;;;11.80;3.42;;;6.00;99.90;;;;;;5158094;27;20046;-71
2022/03/27 06:36:06;;;;;;;8.60;3.70;;;6.00;99.90;;;;;;5158360;27;20134;-72
2022/03/27 06:38:31;;;;;;;10.60;3.60;;;6.00;99.90;;;;;;5157721;27;20046;-72
2022/03/27 06:40:57;;;;;;;13.15;3.47;;;6.00;99.90;;;;;;5158107;27;20057;-72
2022/03/27 06:43:23;;;;;;;10.80;3.70;;;6.10;99.90;;;;;;5122163;27;20046;-72
2022/03/27 06:45:51;;;;;;;14.05;3.72;;;6.00;99.90;;;;;;5158041;27;20042;-72
2022/03/27 06:48:17;;;;;;;7.93;3.45;;;6.10;99.90;;;;;;5157500;27;20047;-72
2022/03/27 06:50:44;;;;;;;5.18;3.63;;;6.00;99.90;;;;;;5122305;27;20402;-72
2022/03/27 06:53:11;;;;;;;7.72;3.70;;;6.10;99.90;;;;;;5139475;27;20042;-72
2022/03/27 06:55:37;;;;;;;7.22;3.72;;;6.10;99.90;;;;;;5121711;27;20046;-73
2022/03/27 06:58:03;;;;;;;10.48;3.50;;;6.10;99.90;;;;;;5157933;27;20062;-73
2022/03/27 07:03:13;;;;;;;12.73;4.43;;;6.20;99.90;;;;;;5157756;27;20403;-72
2022/03/27 07:05:42;;;;;;;11.52;4.20;;;6.20;99.90;;;;;;5157210;27;20041;-72
2022/03/27 07:08:14;;;;;;;14.77;5.07;;;6.30;99.90;;;;;;5157656;27;20401;-72
2022/03/27 07:10:41;;;;;;;17.63;4.35;;;6.40;99.90;;;;;;5139316;27;20107;-72
2022/03/27 07:13:08;;;;;;;16.73;4.20;;;6.50;99.90;;;;;;5138952;27;20039;-72
2022/03/27 07:15:35;;;;;;;23.77;5.50;;;6.50;99.90;;;;;;5156951;27;20043;-73
2022/03/27 07:18:00;;;;;;;15.60;4.72;;;6.60;99.90;;;;;;5157350;27;20089;-75
2022/03/27 07:20:28;;;;;;;25.58;5.47;;;6.70;99.90;;;;;;5156866;27;20078;-77
2022/03/27 07:22:55;;;;;;;26.45;6.03;;;6.70;99.90;;;;;;5138882;27;20133;-76
2022/03/27 07:25:22;;;;;;;23.65;5.53;;;6.80;99.90;;;;;;5138602;27;20446;-76
2022/03/27 07:27:48;;;;;;;20.15;5.32;;;6.80;99.90;;;;;;5138872;27;20117;-76
2022/03/27 07:30:14;;;;;;;29.27;8.02;;;6.80;99.90;;;;;;5157166;27;20051;-76
2022/03/27 07:32:39;;;;;;;33.20;6.40;;;6.90;99.90;;;;;;5138457;27;20095;-76
2022/03/27 07:35:07;;;;;;;27.88;6.35;;;6.80;99.90;;;;;;5156991;27;20039;-76
2022/03/27 07:37:34;;;;;;;27.35;6.20;;;6.80;99.90;;;;;;5156597;27;20402;-77
2022/03/27 07:40:03;;;;;;;32.47;6.70;;;6.90;99.90;;;;;;5156957;27;20046;-79
2022/03/27 07:42:30;;;;;;;41.90;7.13;;;6.90;99.90;;;;;;5138045;27;20082;-79
2022/03/27 07:44:56;;;;;;;32.80;6.70;;;7.00;99.90;;;;;;5156721;27;20039;-79
2022/03/27 07:47:21;;;;;;;35.95;7.35;;;7.10;99.90;;;;;;5138417;27;20122;-77
2022/03/27 07:49:47;;;;;;;36.85;7.10;;;7.30;99.90;;;;;;5156116;27;20600;-76
2022/03/27 07:52:13;;;;;;;36.53;6.45;;;7.30;99.90;;;;;;5156594;27;20168;-73
2022/03/27 07:54:39;;;;;;;35.42;6.80;;;7.40;99.90;;;;;;5137761;27;20398;-73
2022/03/27 07:57:05;;;;;;;41.92;7.65;;;7.50;99.90;;;;;;5156565;27;20058;-73
2022/03/27 07:59:30;;;;;;;38.97;7.25;;;7.50;99.90;;;;;;5156205;27;20043;-73
2022/03/27 08:01:56;;;;;;;44.55;7.68;;;7.60;99.90;;;;;;5156584;27;20112;-73
2022/03/27 08:04:22;;;;;;;43.85;8.50;;;7.60;99.90;;;;;;5151934;27;20092;-73
2022/03/27 08:06:48;;;;;;;38.92;7.10;;;7.70;99.90;;;;;;5137300;27;20039;-73
2022/03/27 08:09:14;;;;;;;41.47;7.60;;;7.70;99.90;;;;;;5134054;27;20050;-73
2022/03/27 08:11:43;;;;;;;39.67;8.23;;;7.70;99.90;;;;;;5152057;27;20046;-73
2022/03/27 08:14:11;;;;;;;28.55;6.43;;;7.70;99.90;;;;;;5139116;27;20034;-73
2022/03/27 08:16:37;;;;;;;42.75;9.02;;;7.70;99.90;;;;;;5116705;27;20049;-73
2022/03/27 08:19:03;;;;;;;37.58;7.78;;;7.70;99.90;;;;;;5128136;27;20550;-73
2022/03/27 08:21:29;;;;;;;39.80;8.43;;;7.70;99.90;;;;;;5115817;27;20039;-73
2022/03/27 08:23:54;;;;;;;40.22;7.57;;;7.70;99.90;;;;;;5135625;27;20039;-72
2022/03/27 08:29:04;;;;;;;36.83;7.07;;;7.80;99.90;;;;;;5155782;27;20442;-72
2022/03/27 08:31:33;;;;;;;37.95;7.47;;;7.80;99.90;;;;;;5155216;27;20070;-74
2022/03/27 08:33:59;;;;;;;47.60;8.20;;;7.90;99.90;;;;;;5144084;27;20065;-73
2022/03/27 08:36:26;;;;;;;40.25;8.05;;;7.90;99.90;;;;;;5116808;27;20043;-71
2022/03/27 08:38:52;;;;;;;37.97;8.50;;;8.00;99.90;;;;;;5116614;27;20107;-72
2022/03/27 08:41:17;;;;;;;39.50;8.20;;;8.00;99.90;;;;;;5134972;27;20043;-73
2022/03/27 08:43:43;;;;;;;38.28;8.27;;;8.10;99.90;;;;;;5134583;27;20047;-72
2022/03/27 08:46:09;;;;;;;37.45;7.47;;;8.00;99.90;;;;;;5134912;27;20368;-72
2022/03/27 08:48:39;;;;;;;43.13;8.63;;;8.10;99.90;;;;;;5134454;27;20467;-73
2022/03/27 08:51:10;;;;;;;40.10;8.27;;;8.10;99.90;;;;;;5134853;27;20122;-73
2022/03/27 08:53:45;;;;;;;41.80;8.43;;;8.20;99.90;;;;;;5082819;27;20039;-73
2022/03/27 08:56:12;;;;;;;39.67;8.38;;;8.20;99.90;;;;;;5099254;27;20054;-72
2022/03/27 08:58:39;;;;;;;38.22;7.32;;;8.20;99.90;;;;;;5099419;27;20047;-73
2022/03/27 09:01:05;;;;;;;37.40;8.07;;;8.20;99.90;;;;;;5116367;27;20104;-72
2022/03/27 09:03:31;;;;;;;38.22;6.95;;;8.40;99.90;;;;;;5116199;27;20051;-72
2022/03/27 09:05:59;;;;;;;39.88;8.60;;;8.40;99.90;;;;;;5115974;27;20424;-73
2022/03/27 09:08:25;;;;;;;40.15;7.85;;;8.40;99.90;;;;;;5134539;27;20051;-72
2022/03/27 09:10:50;;;;;;;38.20;8.23;;;8.50;99.90;;;;;;5115871;27;20035;-72
2022/03/27 09:13:17;;;;;;;39.75;7.65;;;8.50;99.90;;;;;;5134149;27;20410;-72
2022/03/27 09:15:43;;;;;;;38.95;7.85;;;8.60;99.90;;;;;;5133832;27;20051;-73
2022/03/27 09:18:10;;;;;;;42.85;7.35;;;8.60;99.90;;;;;;5116113;27;20045;-73
2022/03/27 09:20:51;;;;;;;36.67;7.63;;;8.60;99.90;;;;;;5116266;27;20390;-73
2022/03/27 09:23:30;;;;;;;38.30;7.32;;;8.80;99.90;;;;;;5116355;27;20043;-73
2022/03/27 09:26:03;;;;;;;32.88;7.30;;;8.70;99.90;;;;;;5115766;27;20066;-73
2022/03/27 09:28:35;;;;;;;36.45;7.15;;;8.70;99.90;;;;;;5115787;27;20054;-73
2022/03/27 09:31:05;;;;;;;33.67;6.70;;;8.70;99.90;;;;;;5133606;27;20074;-73
2022/03/27 09:33:47;;;;;;;29.30;7.38;;;8.80;99.90;;;;;;5115860;27;20039;-73
2022/03/27 09:36:16;;;;;;;34.30;7.82;;;8.80;99.90;;;;;;5116705;27;20039;-73
2022/03/27 09:38:56;;;;;;;28.30;6.20;;;8.80;99.90;;;;;;5133420;27;20133;-74
2022/03/27 09:41:45;;;;;;;31.52;6.63;;;8.90;99.90;;;;;;5116439;27;20117;-73
2022/03/27 09:44:29;;;;;;;30.08;6.10;;;9.00;99.90;;;;;;5133926;27;20054;-73
2022/03/27 09:46:59;;;;;;;36.17;7.25;;;9.00;99.90;;;;;;5133491;27;20049;-73
2022/03/27 09:49:38;;;;;;;32.92;6.93;;;9.10;99.90;;;;;;5115686;27;20043;-73
2022/03/27 09:52:18;;;;;;;33.30;7.43;;;9.20;99.90;;;;;;5115082;27;20039;-74
2022/03/27 09:55:02;;;;;;;27.00;6.40;;;9.20;99.90;;;;;;5133372;27;20070;-74
2022/03/27 09:57:41;;;;;;;25.00;5.85;;;9.30;99.90;;;;;;5098294;27;20542;-73
2022/03/27 10:00:15;;;;;;;27.52;5.07;;;9.30;99.90;;;;;;5114911;27;20066;-73
2022/03/27 10:02:42;;;;;;;24.67;5.75;;;9.40;99.90;;;;;;5115485;28;20103;-73
2022/03/27 10:05:12;;;;;;;30.90;5.50;;;9.40;99.90;;;;;;5133201;28;20050;-73
2022/03/27 10:07:39;;;;;;;30.42;5.90;;;9.60;99.90;;;;;;5115872;28;20166;-73
2022/03/27 10:10:10;;;;;;;28.15;5.07;;;9.60;99.90;;;;;;5133186;28;20337;-73
2022/03/27 10:12:37;;;;;;;27.88;5.50;;;9.70;99.90;;;;;;5115491;28;20083;-73
2022/03/27 10:15:05;;;;;;;28.80;5.72;;;9.70;99.20;;;;;;5132951;28;20078;-73
2022/03/27 10:17:33;;;;;;;20.10;4.93;;;9.70;99.60;;;;;;5133636;28;20130;-74
2022/03/27 10:20:08;;;;;;;22.15;5.25;;;9.80;99.60;;;;;;5098082;28;20047;-73
2022/03/27 10:22:37;;;;;;;20.15;4.88;;;9.90;97.90;;;;;;5133729;28;20092;-73
2022/03/27 10:25:04;;;;;;;114.50;10.13;;;9.90;97.90;;;;;;5133125;28;20032;-73
2022/03/27 10:27:33;;;;;;;30.85;5.38;;;10.00;97.80;;;;;;5115234;28;20043;-73
2022/03/27 10:29:59;;;;;;;19.98;5.13;;;10.00;97.90;;;;;;5098699;28;20039;-73
2022/03/27 10:32:25;;;;;;;23.23;4.85;;;10.10;97.40;;;;;;5133459;28;20047;-73
2022/03/27 10:35:01;;;;;;;24.55;5.30;;;10.10;96.90;;;;;;5145384;27;20043;-74
2022/03/27 10:37:50;;;;;;;25.58;5.50;;;10.20;96.80;;;;;;5130195;27;20041;-73
2022/03/27 10:40:23;;;;;;;26.10;4.93;;;10.30;96.50;;;;;;5099534;28;20051;-73
2022/03/27 10:43:00;;;;;;;25.23;5.00;;;10.30;96.30;;;;;;5120412;28;20441;-74
2022/03/27 10:45:26;;;;;;;26.98;6.38;;;10.40;96.60;;;;;;5104151;28;20047;-73
2022/03/27 10:48:11;;;;;;;23.25;5.13;;;10.40;96.90;;;;;;5133020;27;20051;-73
2022/03/27 10:51:03;;;;;;;23.40;4.90;;;10.60;94.80;;;;;;5153626;27;20043;-73
2022/03/27 10:53:28;;;;;;;23.65;4.78;;;10.60;94.30;;;;;;5145407;27;20055;-74
2022/03/27 10:55:54;;;;;;;26.00;5.10;;;10.60;95.40;;;;;;5116027;27;20138;-74
2022/03/27 10:58:39;;;;;;;22.50;4.55;;;10.70;95.30;;;;;;5131502;28;20047;-73
2022/03/27 11:01:09;;;;;;;18.65;4.47;;;10.70;94.20;;;;;;5110712;28;20083;-73
2022/03/27 11:03:45;;;;;;;27.23;4.63;;;10.80;93.20;;;;;;5128494;28;20086;-73
2022/03/27 11:06:31;;;;;;;21.95;4.50;;;10.90;93.20;;;;;;5132502;27;20069;-74
2022/03/27 11:08:58;;;;;;;24.73;4.70;;;10.90;93.20;;;;;;5131577;28;20086;-74
2022/03/27 11:11:43;;;;;;;21.38;4.93;;;11.00;94.00;;;;;;5131933;28;20043;-73
2022/03/27 11:14:09;;;;;;;22.35;4.57;;;11.10;92.50;;;;;;5132570;27;20055;-73
2022/03/27 11:16:55;;;;;;;18.95;4.18;;;11.10;92.50;;;;;;5133006;28;20047;-73
2022/03/27 11:19:40;;;;;;;21.65;4.60;;;11.20;91.00;;;;;;5103126;27;20063;-73
2022/03/27 11:22:06;;;;;;;25.17;5.25;;;11.30;85.60;;;;;;5135022;27;20062;-74
2022/03/27 11:24:31;;;;;;;17.63;4.00;;;11.30;91.20;;;;;;5135645;27;20054;-74
2022/03/27 11:26:57;;;;;;;21.10;4.78;;;11.30;90.90;;;;;;5136082;27;20046;-74
2022/03/27 11:29:24;;;;;;;22.20;4.80;;;11.40;89.00;;;;;;5135242;27;20082;-73
2022/03/27 11:32:07;;;;;;;27.10;5.75;;;11.50;88.80;;;;;;5135131;27;20130;-74
2022/03/27 11:34:34;;;;;;;19.02;4.55;;;11.60;86.00;;;;;;5136307;27;20047;-74
2022/03/27 11:37:25;;;;;;;22.33;5.15;;;11.70;89.60;;;;;;5134625;27;20050;-73
2022/03/27 11:39:51;;;;;;;21.00;4.85;;;11.80;87.90;;;;;;5135026;27;20059;-74
2022/03/27 11:42:28;;;;;;;19.05;4.32;;;11.70;89.60;;;;;;5135586;27;20054;-73
2022/03/27 11:45:33;;;;;;;21.10;4.50;;;11.80;84.40;;;;;;5136353;27;20165;-73
2022/03/27 11:47:59;;;;;;;19.67;4.15;;;11.90;83.60;;;;;;5103606;27;20052;-74
2022/03/27 11:50:34;;;;;;;30.92;5.05;;;12.00;86.20;;;;;;5118021;27;20361;-73
2022/03/27 11:53:02;;;;;;;23.63;4.72;;;12.10;85.80;;;;;;5134385;27;20054;-74
2022/03/27 11:55:31;;;;;;;19.75;4.25;;;12.10;84.60;;;;;;5117806;27;20039;-73
2022/03/27 11:57:58;;;;;;;15.40;3.95;;;12.20;82.10;;;;;;5134396;27;20495;-73
2022/03/27 12:00:44;;;;;;;23.35;4.55;;;12.20;81.70;;;;;;5100727;27;20051;-73
2022/03/27 12:03:20;;;;;;;19.48;3.70;;;12.30;77.00;;;;;;5134199;27;20043;-73
2022/03/27 12:05:46;;;;;;;17.67;4.07;;;12.40;81.00;;;;;;5135827;27;20050;-73
2022/03/27 12:08:17;;;;;;;19.70;3.90;;;12.40;79.90;;;;;;5135340;27;20039;-74
2022/03/27 12:10:57;;;;;;;13.52;2.65;;;12.50;77.60;;;;;;5135749;27;20043;-73
2022/03/27 12:13:23;;;;;;;12.70;3.47;;;12.50;66.90;;;;;;5134081;27;20054;-73
2022/03/27 12:15:50;;;;;;;14.50;3.10;;;12.60;71.10;;;;;;5134296;27;20047;-73
2022/03/27 12:18:47;;;;;;;13.98;3.03;;;12.70;70.00;;;;;;5135209;27;20042;-73
2022/03/27 12:21:13;;;;;;;9.82;3.00;;;12.70;63.00;;;;;;5122069;27;20422;-73
2022/03/27 12:23:46;;;;;;;13.90;3.25;;;12.70;69.30;;;;;;5134281;27;20394;-74
2022/03/27 12:32:11;;;;;;;16.60;3.73;;;12.90;62.10;;;;;;5134791;27;20126;-73
2022/03/27 12:34:47;;;;;;;18.63;3.78;;;13.00;66.00;;;;;;5133897;27;20043;-74
2022/03/27 12:37:15;;;;;;;16.95;3.20;;;13.00;67.00;;;;;;5133442;27;20043;-73
2022/03/27 12:39:50;;;;;;;15.10;3.40;;;13.00;66.10;;;;;;5135051;27;20047;-74
2022/03/27 12:42:42;;;;;;;16.70;3.75;;;13.10;63.70;;;;;;5133433;27;20082;-74
2022/03/27 12:45:25;;;;;;;17.00;3.42;;;13.10;63.10;;;;;;5133557;27;20457;-74
2022/03/27 12:47:58;;;;;;;19.35;3.58;;;13.20;64.20;;;;;;5135067;27;20324;-74
2022/03/27 12:50:40;;;;;;;16.13;3.40;;;13.20;65.20;;;;;;5134663;27;20043;-74
2022/03/27 12:53:06;;;;;;;10.60;2.80;;;13.30;64.20;;;;;;5133819;27;20047;-74
2022/03/27 12:55:48;;;;;;;16.33;3.15;;;13.30;63.60;;;;;;5134530;27;20050;-74
2022/03/27 12:58:18;;;;;;;10.50;3.08;;;13.40;61.90;;;;;;5152158;27;20061;-74
2022/03/27 13:00:45;;;;;;;13.27;3.13;;;13.40;62.80;;;;;;5155405;27;20387;-74
2022/03/27 13:03:10;;;;;;;14.60;3.50;;;13.40;61.90;;;;;;5151688;27;20054;-74
2022/03/27 13:05:36;;;;;;;12.90;3.10;;;13.40;59.80;;;;;;5146649;27;20515;-74